createdAt,value
2017-03-17T00:00:16.696Z,954.9
2017-03-17T00:01:16.682Z,954.89
2017-03-17T00:02:16.668Z,954.88
2017-03-17T00:03:16.655Z,954.83
2017-03-17T00:04:16.641Z,954.85
2017-03-17T00:05:16.628Z,954.82
2017-03-17T00:06:16.613Z,954.8
2017-03-17T00:07:16.600Z,954.78
2017-03-17T00:08:16.586Z,954.78
2017-03-17T00:09:16.571Z,954.75
2017-03-17T00:10:16.559Z,954.74
2017-03-17T00:11:16.545Z,954.72
2017-03-17T00:12:16.532Z,954.73
2017-03-17T00:13:16.517Z,954.71
2017-03-17T00:14:16.505Z,954.74
2017-03-17T00:15:16.492Z,954.81
2017-03-17T00:16:16.477Z,954.8
2017-03-17T00:17:16.463Z,954.77
2017-03-17T00:18:16.451Z,954.73
2017-03-17T00:19:16.436Z,954.74
2017-03-17T00:20:16.422Z,954.69
2017-03-17T00:21:16.409Z,954.72
2017-03-17T00:22:16.395Z,954.69
2017-03-17T00:23:16.381Z,954.7
2017-03-17T00:24:16.369Z,954.64
2017-03-17T00:25:16.355Z,954.63
2017-03-17T00:26:16.340Z,954.61
2017-03-17T00:27:16.328Z,954.6
2017-03-17T00:28:16.315Z,954.59
2017-03-17T00:29:16.300Z,954.55
2017-03-17T00:30:16.287Z,954.49
2017-03-17T00:31:16.272Z,954.55
2017-03-17T00:32:16.258Z,954.5
2017-03-17T00:33:16.244Z,954.54
2017-03-17T00:34:16.232Z,954.52
2017-03-17T00:35:16.218Z,954.52
2017-03-17T00:36:16.205Z,954.49
2017-03-17T00:37:16.190Z,954.48
2017-03-17T00:38:16.177Z,954.51
2017-03-17T00:39:16.163Z,954.5
2017-03-17T00:40:16.149Z,954.5
2017-03-17T00:41:16.137Z,954.46
2017-03-17T00:42:16.122Z,954.46
2017-03-17T00:43:16.108Z,954.41
2017-03-17T00:44:16.095Z,954.4
2017-03-17T00:45:16.081Z,954.43
2017-03-17T00:46:16.068Z,954.36
2017-03-17T00:47:16.054Z,954.37
2017-03-17T00:48:16.041Z,954.34
2017-03-17T00:49:16.028Z,954.34
2017-03-17T00:50:16.015Z,954.37
2017-03-17T00:51:16.001Z,954.33
2017-03-17T00:52:15.988Z,954.35
2017-03-17T00:53:15.973Z,954.35
2017-03-17T00:54:15.960Z,954.34
2017-03-17T00:55:15.947Z,954.33
2017-03-17T00:56:15.934Z,954.34
2017-03-17T00:57:15.920Z,954.33
2017-03-17T00:58:15.907Z,954.32
2017-03-17T00:59:15.894Z,954.28
2017-03-17T01:00:15.881Z,954.31
2017-03-17T01:01:15.866Z,954.25
2017-03-17T01:02:15.853Z,954.24
2017-03-17T01:03:15.840Z,954.24
2017-03-17T01:04:15.826Z,954.23
2017-03-17T01:05:15.812Z,954.18
2017-03-17T01:06:15.800Z,954.19
2017-03-17T01:07:15.786Z,954.12
2017-03-17T01:08:15.772Z,954.15
2017-03-17T01:09:15.759Z,954.14
2017-03-17T01:10:15.747Z,954.15
2017-03-17T01:11:15.731Z,954.12
2017-03-17T01:12:15.718Z,954.12
2017-03-17T01:13:15.736Z,954.07
2017-03-17T01:14:15.692Z,954.07
2017-03-17T01:15:15.678Z,954.04
2017-03-17T01:16:15.665Z,954.02
2017-03-17T01:17:15.652Z,953.97
2017-03-17T01:18:15.639Z,953.93
2017-03-17T01:19:15.625Z,953.93
2017-03-17T01:20:15.611Z,953.83
2017-03-17T01:21:15.598Z,953.79
2017-03-17T01:22:15.584Z,953.88
2017-03-17T01:23:15.571Z,953.85
2017-03-17T01:24:15.557Z,953.86
2017-03-17T01:25:15.545Z,953.79
2017-03-17T01:26:15.529Z,953.77
2017-03-17T01:27:15.517Z,953.72
2017-03-17T01:28:15.504Z,953.71
2017-03-17T01:29:15.491Z,953.72
2017-03-17T01:30:15.475Z,953.76
2017-03-17T01:31:15.463Z,953.72
2017-03-17T01:32:15.449Z,953.72
2017-03-17T01:33:15.437Z,953.59
2017-03-17T01:34:15.422Z,953.64
2017-03-17T01:35:15.410Z,953.64
2017-03-17T01:36:15.396Z,953.62
2017-03-17T01:37:15.384Z,953.65
2017-03-17T01:38:15.372Z,953.6
2017-03-17T01:39:15.356Z,953.54
2017-03-17T01:40:15.344Z,953.53
2017-03-17T01:41:15.331Z,953.51
2017-03-17T01:42:15.318Z,953.49
2017-03-17T01:43:15.305Z,953.46
2017-03-17T01:44:15.292Z,953.44
2017-03-17T01:45:15.280Z,953.44
2017-03-17T01:46:15.268Z,953.41
2017-03-17T01:47:15.255Z,953.41
2017-03-17T01:48:15.242Z,953.36
2017-03-17T01:49:15.229Z,953.34
2017-03-17T01:50:15.216Z,953.33
2017-03-17T01:51:15.205Z,953.36
2017-03-17T01:52:15.191Z,953.36
2017-03-17T01:53:15.178Z,953.34
2017-03-17T01:54:15.168Z,953.27
2017-03-17T01:55:15.154Z,953.24
2017-03-17T01:56:15.142Z,953.21
2017-03-17T01:57:15.130Z,953.18
2017-03-17T01:58:15.123Z,953.13
2017-03-17T01:59:15.106Z,953.08
2017-03-17T02:00:15.094Z,953.11
2017-03-17T02:01:15.081Z,953.06
2017-03-17T02:02:15.070Z,953.05
2017-03-17T02:03:15.058Z,952.99
2017-03-17T02:04:15.047Z,953
2017-03-17T02:05:15.034Z,952.95
2017-03-17T02:06:15.021Z,952.92
2017-03-17T02:07:15.009Z,952.94
2017-03-17T02:08:14.997Z,952.94
2017-03-17T02:09:14.984Z,952.93
2017-03-17T02:10:14.974Z,952.95
2017-03-17T02:11:14.962Z,952.96
2017-03-17T02:12:14.950Z,952.92
2017-03-17T02:13:14.939Z,952.91
2017-03-17T02:14:14.926Z,952.96
2017-03-17T02:15:14.915Z,952.89
2017-03-17T02:16:14.903Z,952.94
2017-03-17T02:17:14.914Z,952.91
2017-03-17T02:18:14.879Z,952.94
2017-03-17T02:19:14.868Z,952.91
2017-03-17T02:20:14.857Z,952.92
2017-03-17T02:21:14.842Z,952.88
2017-03-17T02:22:14.831Z,952.93
2017-03-17T02:23:14.820Z,952.9
2017-03-17T02:24:16.813Z,952.91
2017-03-17T02:25:14.797Z,952.88
2017-03-17T02:26:14.788Z,952.92
2017-03-17T02:27:14.775Z,952.89
2017-03-17T02:28:14.762Z,952.91
2017-03-17T02:29:14.751Z,952.92
2017-03-17T02:30:14.739Z,952.96
2017-03-17T02:31:14.727Z,953
2017-03-17T02:32:14.715Z,952.96
2017-03-17T02:33:14.704Z,952.92
2017-03-17T02:34:14.692Z,952.95
2017-03-17T02:35:14.680Z,953.01
2017-03-17T02:36:14.669Z,952.91
2017-03-17T02:37:14.657Z,952.94
2017-03-17T02:38:14.646Z,952.89
2017-03-17T02:39:14.634Z,952.86
2017-03-17T02:40:14.622Z,952.88
2017-03-17T02:41:14.610Z,952.85
2017-03-17T02:42:14.600Z,952.8
2017-03-17T02:43:14.589Z,952.79
2017-03-17T02:44:14.576Z,952.74
2017-03-17T02:45:14.564Z,952.72
2017-03-17T02:46:14.553Z,952.68
2017-03-17T02:47:14.541Z,952.68
2017-03-17T02:48:14.530Z,952.65
2017-03-17T02:49:14.518Z,952.65
2017-03-17T02:50:14.506Z,952.58
2017-03-17T02:51:14.494Z,952.56
2017-03-17T02:52:14.484Z,952.58
2017-03-17T02:53:14.473Z,952.6
2017-03-17T02:54:14.460Z,952.59
2017-03-17T02:55:14.448Z,952.58
2017-03-17T02:56:14.442Z,952.63
2017-03-17T02:57:14.424Z,952.54
2017-03-17T02:58:14.415Z,952.52
2017-03-17T02:59:14.403Z,952.51
2017-03-17T03:00:14.390Z,952.58
2017-03-17T03:01:14.378Z,952.49
2017-03-17T03:02:14.368Z,952.47
2017-03-17T03:03:14.357Z,952.47
2017-03-17T03:04:14.345Z,952.36
2017-03-17T03:05:14.336Z,952.45
2017-03-17T03:06:14.322Z,952.45
2017-03-17T03:07:14.311Z,952.43
2017-03-17T03:08:14.299Z,952.47
2017-03-17T03:09:14.287Z,952.46
2017-03-17T03:10:14.277Z,952.31
2017-03-17T03:11:14.266Z,952.41
2017-03-17T03:12:14.254Z,952.41
2017-03-17T03:13:14.243Z,952.42
2017-03-17T03:14:14.231Z,952.41
2017-03-17T03:15:14.223Z,952.34
2017-03-17T03:16:14.209Z,952.38
2017-03-17T03:17:14.197Z,952.35
2017-03-17T03:18:14.186Z,952.29
2017-03-17T03:19:14.176Z,952.34
2017-03-17T03:20:14.164Z,952.39
2017-03-17T03:21:14.155Z,952.38
2017-03-17T03:22:14.143Z,952.37
2017-03-17T03:23:14.131Z,952.34
2017-03-17T03:24:14.120Z,952.33
2017-03-17T03:25:14.109Z,952.38
2017-03-17T03:26:14.099Z,952.39
2017-03-17T03:27:14.108Z,952.29
2017-03-17T03:28:14.076Z,952.24
2017-03-17T03:29:14.064Z,952.2
2017-03-17T03:30:14.053Z,952.15
2017-03-17T03:31:14.042Z,952.23
2017-03-17T03:32:14.031Z,952.2
2017-03-17T03:33:14.021Z,952.21
2017-03-17T03:34:14.011Z,952.16
2017-03-17T03:35:13.997Z,952.19
2017-03-17T03:36:13.986Z,952.21
2017-03-17T03:37:13.975Z,952.16
2017-03-17T03:38:13.963Z,952.17
2017-03-17T03:39:13.954Z,952.16
2017-03-17T03:40:13.941Z,952.13
2017-03-17T03:41:13.930Z,952.19
2017-03-17T03:42:13.919Z,952.16
2017-03-17T03:43:13.908Z,952.15
2017-03-17T03:44:13.896Z,952.11
2017-03-17T03:45:13.885Z,952.15
2017-03-17T03:46:13.873Z,952.2
2017-03-17T03:47:13.862Z,952.17
2017-03-17T03:48:13.852Z,952.12
2017-03-17T03:49:13.839Z,952.13
2017-03-17T03:50:13.829Z,952.12
2017-03-17T03:51:13.818Z,952.1
2017-03-17T03:52:13.806Z,952.05
2017-03-17T03:53:13.796Z,952.08
2017-03-17T03:54:13.784Z,952.03
2017-03-17T03:55:13.773Z,952.02
2017-03-17T03:56:13.762Z,952.03
2017-03-17T03:57:13.750Z,951.96
2017-03-17T03:58:13.740Z,951.98
2017-03-17T03:59:13.728Z,951.96
2017-03-17T04:00:13.717Z,951.94
2017-03-17T04:01:13.707Z,951.89
2017-03-17T04:02:13.700Z,951.85
2017-03-17T04:03:13.683Z,951.86
2017-03-17T04:04:13.673Z,951.81
2017-03-17T04:05:13.660Z,951.85
2017-03-17T04:06:13.651Z,951.86
2017-03-17T04:07:13.659Z,951.81
2017-03-17T04:08:13.628Z,951.85
2017-03-17T04:09:13.617Z,951.83
2017-03-17T04:10:13.605Z,951.84
2017-03-17T04:11:13.593Z,951.81
2017-03-17T04:12:13.583Z,951.83
2017-03-17T04:13:13.571Z,951.82
2017-03-17T04:14:13.560Z,951.8
2017-03-17T04:15:13.549Z,951.75
2017-03-17T04:16:13.538Z,951.79
2017-03-17T04:17:13.527Z,951.75
2017-03-17T04:18:13.515Z,951.76
2017-03-17T04:19:13.505Z,951.79
2017-03-17T04:20:13.494Z,951.77
2017-03-17T04:21:13.482Z,951.78
2017-03-17T04:22:13.470Z,951.78
2017-03-17T04:23:13.461Z,951.81
2017-03-17T04:24:13.449Z,951.79
2017-03-17T04:25:13.436Z,951.78
2017-03-17T04:26:13.426Z,951.77
2017-03-17T04:27:13.414Z,951.77
2017-03-17T04:28:13.403Z,951.78
2017-03-17T04:29:13.392Z,951.82
2017-03-17T04:30:13.381Z,951.78
2017-03-17T04:31:13.368Z,951.83
2017-03-17T04:32:13.357Z,951.79
2017-03-17T04:33:13.345Z,951.72
2017-03-17T04:34:13.334Z,951.71
2017-03-17T04:35:13.323Z,951.7
2017-03-17T04:36:13.310Z,951.63
2017-03-17T04:37:13.300Z,951.65
2017-03-17T04:38:13.288Z,951.65
2017-03-17T04:39:13.277Z,951.65
2017-03-17T04:40:13.264Z,951.65
2017-03-17T04:41:13.253Z,951.64
2017-03-17T04:42:13.242Z,951.57
2017-03-17T04:43:13.230Z,951.63
2017-03-17T04:44:13.219Z,951.56
2017-03-17T04:45:13.206Z,951.57
2017-03-17T04:46:13.196Z,951.6
2017-03-17T04:47:13.184Z,951.56
2017-03-17T04:48:13.171Z,951.54
2017-03-17T04:49:13.159Z,951.56
2017-03-17T04:50:13.149Z,951.59
2017-03-17T04:51:13.136Z,951.59
2017-03-17T04:52:13.125Z,951.61
2017-03-17T04:53:13.114Z,951.55
2017-03-17T04:54:13.101Z,951.52
2017-03-17T04:55:13.090Z,951.59
2017-03-17T04:56:13.077Z,951.53
2017-03-17T04:57:13.067Z,951.57
2017-03-17T04:58:13.054Z,951.59
2017-03-17T04:59:13.043Z,951.57
2017-03-17T05:00:13.031Z,951.58
2017-03-17T05:01:13.020Z,951.56
2017-03-17T05:02:13.006Z,951.55
2017-03-17T05:03:12.996Z,951.53
2017-03-17T05:04:12.984Z,951.53
2017-03-17T05:05:12.971Z,951.52
2017-03-17T05:06:12.961Z,951.48
2017-03-17T05:07:12.947Z,951.43
2017-03-17T05:08:12.937Z,951.51
2017-03-17T05:09:12.924Z,951.53
2017-03-17T05:10:12.913Z,951.51
2017-03-17T05:11:12.902Z,951.51
2017-03-17T05:12:12.890Z,951.53
2017-03-17T05:13:12.878Z,951.48
2017-03-17T05:14:12.865Z,951.48
2017-03-17T05:15:12.854Z,951.48
2017-03-17T05:16:12.842Z,951.52
2017-03-17T05:17:12.830Z,951.52
2017-03-17T05:18:12.818Z,951.53
2017-03-17T05:19:12.807Z,951.55
2017-03-17T05:20:12.794Z,951.53
2017-03-17T05:21:12.781Z,951.5
2017-03-17T05:22:12.771Z,951.54
2017-03-17T05:23:12.760Z,951.58
2017-03-17T05:24:12.747Z,951.59
2017-03-17T05:25:12.735Z,951.59
2017-03-17T05:26:12.724Z,951.49
2017-03-17T05:27:12.710Z,951.43
2017-03-17T05:28:12.699Z,951.51
2017-03-17T05:29:12.688Z,951.43
2017-03-17T05:30:12.675Z,951.44
2017-03-17T05:31:12.663Z,951.41
2017-03-17T05:32:12.652Z,951.4
2017-03-17T05:33:12.641Z,951.35
2017-03-17T05:34:12.629Z,951.34
2017-03-17T05:35:12.617Z,951.3
2017-03-17T05:36:12.605Z,951.23
2017-03-17T05:37:12.593Z,951.22
2017-03-17T05:38:12.582Z,951.21
2017-03-17T05:39:12.570Z,951.2
2017-03-17T05:40:12.556Z,951.25
2017-03-17T05:41:12.546Z,951.18
2017-03-17T05:42:12.534Z,951.17
2017-03-17T05:43:12.527Z,951.14
2017-03-17T05:44:12.511Z,951.17
2017-03-17T05:45:12.499Z,951.15
2017-03-17T05:46:12.488Z,951.08
2017-03-17T05:47:12.474Z,951.07
2017-03-17T05:48:12.463Z,951.11
2017-03-17T05:49:12.451Z,951.11
2017-03-17T05:50:12.439Z,951.07
2017-03-17T05:51:12.428Z,951.12
2017-03-17T05:52:12.417Z,951.18
2017-03-17T05:53:12.403Z,951.17
2017-03-17T05:54:12.399Z,951.14
2017-03-17T05:55:12.382Z,951.14
2017-03-17T05:56:12.369Z,951.11
2017-03-17T05:57:12.358Z,951.05
2017-03-17T05:58:12.348Z,951.07
2017-03-17T05:59:12.335Z,951.04
2017-03-17T06:00:12.327Z,951
2017-03-17T06:01:12.311Z,951.05
2017-03-17T06:02:12.300Z,951.02
2017-03-17T06:03:12.288Z,951.01
2017-03-17T06:04:12.277Z,951.06
2017-03-17T06:05:12.266Z,950.99
2017-03-17T06:06:12.255Z,951.02
2017-03-17T06:07:12.241Z,950.95
2017-03-17T06:08:12.231Z,950.97
2017-03-17T06:09:12.222Z,950.96
2017-03-17T06:10:12.207Z,950.88
2017-03-17T06:11:12.196Z,950.98
2017-03-17T06:12:12.183Z,950.91
2017-03-17T06:13:12.174Z,950.95
2017-03-17T06:14:12.162Z,950.92
2017-03-17T06:15:12.151Z,950.83
2017-03-17T06:16:12.139Z,950.95
2017-03-17T06:17:12.127Z,950.98
2017-03-17T06:18:12.116Z,950.87
2017-03-17T06:19:12.104Z,950.9
2017-03-17T06:20:12.095Z,950.88
2017-03-17T06:21:12.082Z,950.96
2017-03-17T06:22:12.070Z,950.94
2017-03-17T06:23:12.059Z,950.97
2017-03-17T06:24:12.047Z,951.04
2017-03-17T06:25:12.037Z,951
2017-03-17T06:26:12.026Z,951.07
2017-03-17T06:27:12.014Z,951.06
2017-03-17T06:28:12.002Z,951.07
2017-03-17T06:29:11.991Z,951.08
2017-03-17T06:30:11.980Z,951.1
2017-03-17T06:31:11.971Z,951.08
2017-03-17T06:32:11.959Z,951.07
2017-03-17T06:33:11.950Z,951.04
2017-03-17T06:34:11.937Z,950.95
2017-03-17T06:35:11.925Z,950.93
2017-03-17T06:36:11.915Z,950.9
2017-03-17T06:37:11.903Z,950.8
2017-03-17T06:38:11.892Z,950.8
2017-03-17T06:39:11.882Z,950.84
2017-03-17T06:40:11.871Z,950.82
2017-03-17T06:41:11.861Z,950.81
2017-03-17T06:42:11.849Z,950.82
2017-03-17T06:43:11.839Z,950.88
2017-03-17T06:44:11.828Z,950.85
2017-03-17T06:45:11.817Z,950.8
2017-03-17T06:46:11.807Z,950.79
2017-03-17T06:47:11.795Z,950.82
2017-03-17T06:48:11.784Z,950.83
2017-03-17T06:49:11.775Z,950.82
2017-03-17T06:50:11.765Z,950.81
2017-03-17T06:51:11.753Z,950.88
2017-03-17T06:52:11.744Z,950.79
2017-03-17T06:53:11.736Z,950.81
2017-03-17T06:54:11.723Z,950.76
2017-03-17T06:55:11.712Z,950.84
2017-03-17T06:56:11.703Z,950.78
2017-03-17T06:57:11.693Z,950.79
2017-03-17T06:58:11.711Z,950.82
2017-03-17T06:59:11.673Z,950.91
2017-03-17T07:00:11.661Z,950.88
2017-03-17T07:01:11.652Z,950.86
2017-03-17T07:02:11.640Z,950.88
2017-03-17T07:03:11.633Z,950.94
2017-03-17T07:04:11.622Z,950.89
2017-03-17T07:05:11.612Z,950.88
2017-03-17T07:06:11.601Z,950.83
2017-03-17T07:07:11.591Z,950.8
2017-03-17T07:08:11.582Z,950.91
2017-03-17T07:09:11.572Z,950.9
2017-03-17T07:10:11.561Z,950.85
2017-03-17T07:11:11.551Z,950.81
2017-03-17T07:12:11.544Z,950.94
2017-03-17T07:13:11.530Z,950.94
2017-03-17T07:14:11.521Z,950.93
2017-03-17T07:15:11.511Z,950.92
2017-03-17T07:16:11.501Z,950.93
2017-03-17T07:17:11.492Z,950.92
2017-03-17T07:18:11.482Z,950.88
2017-03-17T07:19:11.472Z,950.89
2017-03-17T07:20:11.461Z,950.92
2017-03-17T07:21:11.450Z,950.94
2017-03-17T07:22:11.441Z,950.91
2017-03-17T07:23:11.435Z,950.93
2017-03-17T07:24:11.422Z,950.92
2017-03-17T07:25:11.413Z,950.95
2017-03-17T07:26:11.403Z,950.96
2017-03-17T07:27:11.393Z,950.96
2017-03-17T07:28:11.382Z,950.97
2017-03-17T07:29:11.372Z,950.96
2017-03-17T07:30:11.363Z,950.93
2017-03-17T07:31:11.353Z,950.91
2017-03-17T07:32:11.344Z,950.89
2017-03-17T07:33:11.334Z,950.9
2017-03-17T07:34:11.325Z,950.8
2017-03-17T07:35:11.315Z,950.8
2017-03-17T07:36:11.304Z,950.87
2017-03-17T07:37:11.296Z,950.87
2017-03-17T07:38:11.286Z,950.92
2017-03-17T07:39:11.275Z,950.92
2017-03-17T07:40:11.267Z,950.81
2017-03-17T07:41:11.257Z,950.85
2017-03-17T07:42:11.246Z,950.87
2017-03-17T07:43:11.238Z,950.88
2017-03-17T07:44:11.228Z,950.86
2017-03-17T07:45:11.219Z,950.89
2017-03-17T07:46:11.209Z,950.85
2017-03-17T07:47:11.198Z,950.85
2017-03-17T07:48:11.190Z,950.84
2017-03-17T07:49:11.181Z,950.85
2017-03-17T07:50:11.171Z,950.83
2017-03-17T07:51:11.161Z,950.78
2017-03-17T07:52:11.153Z,950.79
2017-03-17T07:53:11.143Z,950.82
2017-03-17T07:54:11.134Z,950.85
2017-03-17T07:55:11.124Z,950.82
2017-03-17T07:56:11.121Z,950.85
2017-03-17T07:57:11.107Z,950.81
2017-03-17T07:58:11.101Z,950.8
2017-03-17T07:59:11.090Z,950.81
2017-03-17T08:00:11.081Z,950.81
2017-03-17T08:01:11.072Z,950.84
2017-03-17T08:02:11.064Z,950.82
2017-03-17T08:03:11.056Z,950.88
2017-03-17T08:04:11.045Z,950.85
2017-03-17T08:05:11.038Z,950.83
2017-03-17T08:06:11.029Z,950.82
2017-03-17T08:07:11.021Z,950.83
2017-03-17T08:08:11.013Z,950.86
2017-03-17T08:09:11.004Z,950.82
2017-03-17T08:10:10.997Z,950.77
2017-03-17T08:11:10.988Z,950.86
2017-03-17T08:12:10.981Z,950.83
2017-03-17T08:13:10.974Z,950.83
2017-03-17T08:14:10.966Z,950.89
2017-03-17T08:15:10.957Z,950.82
2017-03-17T08:16:10.951Z,950.87
2017-03-17T08:17:10.942Z,950.88
2017-03-17T08:18:10.936Z,950.85
2017-03-17T08:19:10.927Z,950.91
2017-03-17T08:20:10.921Z,950.85
2017-03-17T08:21:10.913Z,950.85
2017-03-17T08:22:10.905Z,950.81
2017-03-17T08:23:10.902Z,950.86
2017-03-17T08:24:10.892Z,950.87
2017-03-17T08:25:10.885Z,950.76
2017-03-17T08:26:10.877Z,950.78
2017-03-17T08:27:10.871Z,950.78
2017-03-17T08:28:10.866Z,950.72
2017-03-17T08:29:10.859Z,950.72
2017-03-17T08:30:10.852Z,950.7
2017-03-17T08:31:10.846Z,950.69
2017-03-17T08:32:10.841Z,950.75
2017-03-17T08:33:10.836Z,950.71
2017-03-17T08:34:10.828Z,950.63
2017-03-17T08:35:10.822Z,950.62
2017-03-17T08:36:10.815Z,950.66
2017-03-17T08:37:10.809Z,950.63
2017-03-17T08:38:10.805Z,950.66
2017-03-17T08:39:10.798Z,950.68
2017-03-17T08:40:10.792Z,950.66
2017-03-17T08:41:10.786Z,950.68
2017-03-17T08:42:10.779Z,950.7
2017-03-17T08:43:10.775Z,950.72
2017-03-17T08:44:10.769Z,950.76
2017-03-17T08:45:10.764Z,950.71
2017-03-17T08:46:10.757Z,950.74
2017-03-17T08:47:10.751Z,950.69
2017-03-17T08:48:10.747Z,950.7
2017-03-17T08:49:10.740Z,950.69
2017-03-17T08:50:10.734Z,950.65
2017-03-17T08:51:10.729Z,950.72
2017-03-17T08:52:10.724Z,950.68
2017-03-17T08:53:10.718Z,950.66
2017-03-17T08:54:10.713Z,950.68
2017-03-17T08:55:10.706Z,950.68
2017-03-17T08:56:10.700Z,950.65
2017-03-17T08:57:10.695Z,950.64
2017-03-17T08:58:10.689Z,950.62
2017-03-17T08:59:10.684Z,950.64
2017-03-17T09:00:10.678Z,950.6
2017-03-17T09:01:10.673Z,950.59
2017-03-17T09:02:10.668Z,950.55
2017-03-17T09:03:10.663Z,950.58
2017-03-17T09:04:10.657Z,950.55
2017-03-17T09:05:10.651Z,950.61
2017-03-17T09:06:10.645Z,950.55
2017-03-17T09:07:10.639Z,950.58
2017-03-17T09:08:10.634Z,950.56
2017-03-17T09:09:10.629Z,950.61
2017-03-17T09:10:10.623Z,950.62
2017-03-17T09:11:10.619Z,950.64
2017-03-17T09:12:10.613Z,950.61
2017-03-17T09:13:10.609Z,950.62
2017-03-17T09:14:10.604Z,950.66
2017-03-17T09:15:10.598Z,950.69
2017-03-17T09:16:10.595Z,950.72
2017-03-17T09:17:10.590Z,950.68
2017-03-17T09:18:10.583Z,950.63
2017-03-17T09:19:10.582Z,950.66
2017-03-17T09:20:10.575Z,950.64
2017-03-17T09:21:10.571Z,950.65
2017-03-17T09:22:10.569Z,950.64
2017-03-17T09:23:10.563Z,950.61
2017-03-17T09:24:10.558Z,950.56
2017-03-17T09:25:10.554Z,950.58
2017-03-17T09:26:10.550Z,950.59
2017-03-17T09:27:10.545Z,950.6
2017-03-17T09:28:10.540Z,950.6
2017-03-17T09:29:10.538Z,950.63
2017-03-17T09:30:10.533Z,950.59
2017-03-17T09:31:10.529Z,950.62
2017-03-17T09:32:10.524Z,950.64
2017-03-17T09:33:10.519Z,950.55
2017-03-17T09:34:10.517Z,950.61
2017-03-17T09:35:10.510Z,950.62
2017-03-17T09:36:10.506Z,950.61
2017-03-17T09:37:10.502Z,950.56
2017-03-17T09:38:10.499Z,950.53
2017-03-17T09:39:10.492Z,950.63
2017-03-17T09:40:10.489Z,950.6
2017-03-17T09:41:10.483Z,950.61
2017-03-17T09:42:10.480Z,950.61
2017-03-17T09:43:10.475Z,950.67
2017-03-17T09:44:10.470Z,950.61
2017-03-17T09:45:10.467Z,950.57
2017-03-17T09:46:10.462Z,950.59
2017-03-17T09:47:10.455Z,950.61
2017-03-17T09:48:10.453Z,950.62
2017-03-17T09:49:10.448Z,950.59
2017-03-17T09:50:10.442Z,950.59
2017-03-17T09:51:10.437Z,950.57
2017-03-17T09:52:10.433Z,950.61
2017-03-17T09:53:10.428Z,950.59
2017-03-17T09:54:10.422Z,950.59
2017-03-17T09:55:10.418Z,950.55
2017-03-17T09:56:10.412Z,950.54
2017-03-17T09:57:10.407Z,950.55
2017-03-17T09:58:10.402Z,950.53
2017-03-17T09:59:10.397Z,950.55
2017-03-17T10:00:10.391Z,950.58
2017-03-17T10:01:10.385Z,950.61
2017-03-17T10:02:10.380Z,950.61
2017-03-17T10:03:10.375Z,950.59
2017-03-17T10:04:10.370Z,950.57
2017-03-17T10:05:10.363Z,950.54
2017-03-17T10:06:10.359Z,950.54
2017-03-17T10:07:10.353Z,950.56
2017-03-17T10:08:10.347Z,950.52
2017-03-17T10:09:10.343Z,950.56
2017-03-17T10:10:10.337Z,950.53
2017-03-17T10:11:10.332Z,950.53
2017-03-17T10:12:10.325Z,950.62
2017-03-17T10:13:10.320Z,950.58
2017-03-17T10:14:10.315Z,950.59
2017-03-17T10:15:10.309Z,950.57
2017-03-17T10:16:10.302Z,950.55
2017-03-17T10:17:10.302Z,950.55
2017-03-17T10:18:10.293Z,950.56
2017-03-17T10:19:10.286Z,950.61
2017-03-17T10:20:10.281Z,950.59
2017-03-17T10:21:10.275Z,950.63
2017-03-17T10:22:10.269Z,950.57
2017-03-17T10:23:10.261Z,950.58
2017-03-17T10:24:10.257Z,950.6
2017-03-17T10:25:10.251Z,950.6
2017-03-17T10:26:10.246Z,950.57
2017-03-17T10:27:10.239Z,950.55
2017-03-17T10:28:10.233Z,950.59
2017-03-17T10:29:10.228Z,950.57
2017-03-17T10:30:10.219Z,950.49
2017-03-17T10:31:10.213Z,950.52
2017-03-17T10:32:10.207Z,950.51
2017-03-17T10:33:10.202Z,950.51
2017-03-17T10:34:10.194Z,950.47
2017-03-17T10:35:10.189Z,950.45
2017-03-17T10:36:10.183Z,950.48
2017-03-17T10:37:10.177Z,950.45
2017-03-17T10:38:10.171Z,950.46
2017-03-17T10:39:10.164Z,950.44
2017-03-17T10:40:10.157Z,950.44
2017-03-17T10:41:10.150Z,950.47
2017-03-17T10:42:10.144Z,950.54
2017-03-17T10:43:10.138Z,950.53
2017-03-17T10:44:10.132Z,950.5
2017-03-17T10:45:10.125Z,950.48
2017-03-17T10:46:10.117Z,950.5
2017-03-17T10:47:10.111Z,950.45
2017-03-17T10:48:10.106Z,950.47
2017-03-17T10:49:10.098Z,950.46
2017-03-17T10:50:10.219Z,950.47
2017-03-17T10:51:10.120Z,950.41
2017-03-17T10:52:10.079Z,950.42
2017-03-17T10:53:10.072Z,950.51
2017-03-17T10:54:10.214Z,950.53
2017-03-17T10:55:10.179Z,950.43
2017-03-17T10:56:10.168Z,950.4
2017-03-17T10:57:10.047Z,950.36
2017-03-17T10:58:10.041Z,950.35
2017-03-17T10:59:10.036Z,950.36
2017-03-17T11:00:10.028Z,950.34
2017-03-17T11:01:10.021Z,950.37
2017-03-17T11:02:10.014Z,950.38
2017-03-17T11:03:10.007Z,950.28
2017-03-17T11:04:10.000Z,950.31
2017-03-17T11:05:09.996Z,950.3
2017-03-17T11:06:09.989Z,950.31
2017-03-17T11:07:10.020Z,950.28
2017-03-17T11:08:09.978Z,950.28
2017-03-17T11:09:09.971Z,950.31
2017-03-17T11:10:09.965Z,950.29
2017-03-17T11:11:09.958Z,950.31
2017-03-17T11:12:09.951Z,950.27
2017-03-17T11:13:09.949Z,950.26
2017-03-17T11:14:09.940Z,950.25
2017-03-17T11:15:09.935Z,950.26
2017-03-17T11:16:09.928Z,950.19
2017-03-17T11:17:09.922Z,950.14
2017-03-17T11:18:09.916Z,950.17
2017-03-17T11:19:09.911Z,950.13
2017-03-17T11:20:09.905Z,950.18
2017-03-17T11:21:09.899Z,950.06
2017-03-17T11:22:09.892Z,950.03
2017-03-17T11:23:09.888Z,950.02
2017-03-17T11:24:09.907Z,949.95
2017-03-17T11:25:09.874Z,949.81
2017-03-17T11:26:09.869Z,949.85
2017-03-17T11:27:09.863Z,949.74
2017-03-17T11:28:09.858Z,949.66
2017-03-17T11:29:09.851Z,949.6
2017-03-17T11:30:09.846Z,949.53
2017-03-17T11:31:09.841Z,949.48
2017-03-17T11:32:09.836Z,949.47
2017-03-17T11:33:09.830Z,949.47
2017-03-17T11:34:09.825Z,949.5
2017-03-17T11:35:09.820Z,949.47
2017-03-17T11:36:09.813Z,949.52
2017-03-17T11:37:09.810Z,949.5
2017-03-17T11:38:09.803Z,949.51
2017-03-17T11:39:09.800Z,949.54
2017-03-17T11:40:09.793Z,949.55
2017-03-17T11:41:09.789Z,949.57
2017-03-17T11:42:09.783Z,949.61
2017-03-17T11:43:09.778Z,949.54
2017-03-17T11:44:09.770Z,949.5
2017-03-17T11:45:09.766Z,949.47
2017-03-17T11:46:09.762Z,949.36
2017-03-17T11:47:09.756Z,949.43
2017-03-17T11:48:09.751Z,949.39
2017-03-17T11:49:09.744Z,949.43
2017-03-17T11:50:09.740Z,949.39
2017-03-17T11:51:09.734Z,949.44
2017-03-17T11:52:09.729Z,949.48
2017-03-17T11:53:09.724Z,949.45
2017-03-17T11:54:09.718Z,949.51
2017-03-17T11:55:09.715Z,949.51
2017-03-17T11:56:09.709Z,949.49
2017-03-17T11:57:09.702Z,949.51
2017-03-17T11:58:09.697Z,949.53
2017-03-17T11:59:09.692Z,949.52
2017-03-17T12:00:09.688Z,949.64
2017-03-17T12:01:09.681Z,949.57
2017-03-17T12:02:09.675Z,949.55
2017-03-17T12:03:09.670Z,949.55
2017-03-17T12:04:09.665Z,949.63
2017-03-17T12:05:09.660Z,949.6
2017-03-17T12:06:09.653Z,949.53
2017-03-17T12:07:09.647Z,949.57
2017-03-17T12:08:09.643Z,949.51
2017-03-17T12:09:09.636Z,949.46
2017-03-17T12:10:09.627Z,949.51
2017-03-17T12:11:09.622Z,949.54
2017-03-17T12:12:09.616Z,949.61
2017-03-17T12:13:09.611Z,949.63
2017-03-17T12:14:09.605Z,949.61
2017-03-17T12:15:09.597Z,949.61
2017-03-17T12:16:09.589Z,949.45
2017-03-17T12:17:09.583Z,949.43
2017-03-17T12:18:09.577Z,949.48
2017-03-17T12:19:09.569Z,949.44
2017-03-17T12:20:09.563Z,949.44
2017-03-17T12:21:09.557Z,949.49
2017-03-17T12:22:09.550Z,949.41
2017-03-17T12:23:09.544Z,949.46
2017-03-17T12:24:09.536Z,949.39
2017-03-17T12:25:09.530Z,949.46
2017-03-17T12:26:09.522Z,949.37
2017-03-17T12:27:09.515Z,949.37
2017-03-17T12:28:09.508Z,949.33
2017-03-17T12:29:09.503Z,949.28
2017-03-17T12:30:09.495Z,949.4